Igor I Sikorsky Memorial Airport
KBDR : now visible

Aeroporto :











RITROVATECI SU...

 
LOGIN :

Iscrizione | Disclaimer

   EN    FR    IT 

 









Sommario :    VFR   VFR Marginale   IFR   IFR Intensivo   IFR Molto Intensivo
Visibilità : 
Base nubi : 
>= 8 km
>= 3000ft
5 / 8 km
1000 / 3000 ft
1500m / 5 km
500 / 1000 ft
800 / 1500m
200 / 500 ft
< 800m
< 200 ft
Simboli :   Temporali  Nebbia  Neve Forte  Precipitazioni Forti  Vento > 20 kt






- Altitudine del aeroporto : 9 ft
- Codice IATA : BDR


KBDR - Igor I Sikorsky Memorial

ULTIMO METAR :
  • 272052Z 28007KT 10SM OVC060 07/M02 A2963 RMK AO2 SLP034 T00671022 55002

METARs OBSOLETI :
  • 271952Z 28010G16KT 10SM BKN047 OVC060 07/M03 A2962 RMK AO2 SLP031 T00671028
  • 271852Z 23013KT 10SM OVC055 06/01 A2963 RMK AO2 SLP032 T00560006

TAF KBDR
Valido dal 27 a 21 ore il 28 a 18 ore UTC


272031Z 2721/2818 29008KT P6SM SCT050
FM280300 31007KT P6SM FEW025
FM281500 32010G18KT P6SM SCT035



MetMap, La meteo Aeronautica in un colpo d'occhio ! - Copyright ORBIFLY Dicembre 2007 - Disclaimer

ORBIFLY MET'MAP TEAM :

Programmazione e sviluppo : Alexandra Zaïnal
Concezione : Baudouin d'Aumeries
Aiuto per la programmazione : Marc-Olivier Méhu
Supporto tecnico e logistico : Manuel Goepfert
Aiuto per la traduzione : Arnaldo La Scala

Contatto : metmap@orbifly.com




FONTI E CREDITI :

   NOAA       Earth
Advisory